sensor_id;sensor_type;location;lat;lon;timestamp;P1;durP1;ratioP1;P2;durP2;ratioP2
57249;SDS011;43102;52.014;-0.680;2023-05-16T00:00:00;7.00;;;3.00;;
57249;SDS011;43102;52.014;-0.680;2023-05-16T00:01:01;7.00;;;3.00;;
57249;SDS011;43102;52.014;-0.680;2023-05-16T00:02:01;3.90;;;3.00;;
57249;SDS011;43102;52.014;-0.680;2023-05-16T00:03:03;3.90;;;3.00;;
57249;SDS011;43102;52.014;-0.680;2023-05-16T00:04:02;3.90;;;3.00;;
57249;SDS011;43102;52.014;-0.680;2023-05-16T00:05:00;3.90;;;3.00;;
57249;SDS011;43102;52.014;-0.680;2023-05-16T00:06:01;3.90;;;3.00;;
57249;SDS011;43102;52.014;-0.680;2023-05-16T00:07:00;3.90;;;3.00;;
57249;SDS011;43102;52.014;-0.680;2023-05-16T00:08:00;3.90;;;3.00;;
57249;SDS011;43102;52.014;-0.680;2023-05-16T00:09:00;3.90;;;3.00;;
57249;SDS011;43102;52.014;-0.680;2023-05-16T00:10:00;3.90;;;3.00;;
57249;SDS011;43102;52.014;-0.680;2023-05-16T00:11:00;3.90;;;3.00;;
57249;SDS011;43102;52.014;-0.680;2023-05-16T00:12:00;3.90;;;3.00;;
57249;SDS011;43102;52.014;-0.680;2023-05-16T00:13:00;3.90;;;3.00;;
57249;SDS011;43102;52.014;-0.680;2023-05-16T00:14:01;3.90;;;3.00;;
57249;SDS011;43102;52.014;-0.680;2023-05-16T00:15:00;3.90;;;3.00;;
57249;SDS011;43102;52.014;-0.680;2023-05-16T00:16:01;3.90;;;3.00;;
57249;SDS011;43102;52.014;-0.680;2023-05-16T00:17:00;3.90;;;3.00;;
57249;SDS011;43102;52.014;-0.680;2023-05-16T00:18:00;3.90;;;3.00;;
57249;SDS011;43102;52.014;-0.680;2023-05-16T00:19:01;3.90;;;3.00;;
57249;SDS011;43102;52.014;-0.680;2023-05-16T00:20:06;3.90;;;3.00;;
57249;SDS011;43102;52.014;-0.680;2023-05-16T00:21:01;3.90;;;3.00;;
57249;SDS011;43102;52.014;-0.680;2023-05-16T00:22:00;3.90;;;3.00;;
57249;SDS011;43102;52.014;-0.680;2023-05-16T00:23:00;3.90;;;3.00;;
57249;SDS011;43102;52.014;-0.680;2023-05-16T00:24:00;3.90;;;3.00;;
57249;SDS011;43102;52.014;-0.680;2023-05-16T00:25:00;3.90;;;3.00;;
57249;SDS011;43102;52.014;-0.680;2023-05-16T00:26:00;3.90;;;3.00;;
57249;SDS011;43102;52.014;-0.680;2023-05-16T00:27:00;3.90;;;3.00;;
57249;SDS011;43102;52.014;-0.680;2023-05-16T00:28:00;3.90;;;3.00;;
57249;SDS011;43102;52.014;-0.680;2023-05-16T00:29:01;3.90;;;3.00;;
57249;SDS011;43102;52.014;-0.680;2023-05-16T00:30:02;3.90;;;3.00;;
57249;SDS011;43102;52.014;-0.680;2023-05-16T00:31:00;3.90;;;3.00;;
57249;SDS011;43102;52.014;-0.680;2023-05-16T00:32:00;4.30;;;1.90;;
57249;SDS011;43102;52.014;-0.680;2023-05-16T00:33:01;4.30;;;1.90;;
57249;SDS011;43102;52.014;-0.680;2023-05-16T00:34:00;4.30;;;1.90;;
57249;SDS011;43102;52.014;-0.680;2023-05-16T00:35:00;4.30;;;1.90;;
57249;SDS011;43102;52.014;-0.680;2023-05-16T00:36:00;4.30;;;1.90;;
57249;SDS011;43102;52.014;-0.680;2023-05-16T00:37:00;4.30;;;1.90;;
57249;SDS011;43102;52.014;-0.680;2023-05-16T00:38:00;4.30;;;1.90;;
57249;SDS011;43102;52.014;-0.680;2023-05-16T00:39:00;4.30;;;1.90;;
57249;SDS011;43102;52.014;-0.680;2023-05-16T00:40:00;4.30;;;1.90;;
57249;SDS011;43102;52.014;-0.680;2023-05-16T00:41:00;4.30;;;1.90;;
57249;SDS011;43102;52.014;-0.680;2023-05-16T00:42:00;4.30;;;1.90;;
57249;SDS011;43102;52.014;-0.680;2023-05-16T00:43:00;4.30;;;1.90;;
57249;SDS011;43102;52.014;-0.680;2023-05-16T00:44:00;4.30;;;1.90;;
57249;SDS011;43102;52.014;-0.680;2023-05-16T00:45:00;4.30;;;1.90;;
57249;SDS011;43102;52.014;-0.680;2023-05-16T00:46:00;4.30;;;1.90;;
57249;SDS011;43102;52.014;-0.680;2023-05-16T00:47:01;4.30;;;1.90;;
57249;SDS011;43102;52.014;-0.680;2023-05-16T00:48:00;4.30;;;1.90;;
57249;SDS011;43102;52.014;-0.680;2023-05-16T00:49:00;4.30;;;1.90;;
57249;SDS011;43102;52.014;-0.680;2023-05-16T00:50:00;4.30;;;1.90;;
57249;SDS011;43102;52.014;-0.680;2023-05-16T00:51:00;4.30;;;1.90;;
57249;SDS011;43102;52.014;-0.680;2023-05-16T00:52:00;4.30;;;1.90;;
57249;SDS011;43102;52.014;-0.680;2023-05-16T00:53:00;4.30;;;1.90;;
57249;SDS011;43102;52.014;-0.680;2023-05-16T00:54:01;4.30;;;1.90;;
57249;SDS011;43102;52.014;-0.680;2023-05-16T00:55:01;4.30;;;1.90;;
57249;SDS011;43102;52.014;-0.680;2023-05-16T00:56:00;4.30;;;1.90;;
57249;SDS011;43102;52.014;-0.680;2023-05-16T00:57:00;4.30;;;1.90;;
57249;SDS011;43102;52.014;-0.680;2023-05-16T00:58:00;4.30;;;1.90;;
57249;SDS011;43102;52.014;-0.680;2023-05-16T00:59:00;4.30;;;1.90;;
57249;SDS011;43102;52.014;-0.680;2023-05-16T01:00:00;4.30;;;1.90;;
57249;SDS011;43102;52.014;-0.680;2023-05-16T01:01:02;4.30;;;1.90;;
57249;SDS011;43102;52.014;-0.680;2023-05-16T01:02:01;4.40;;;2.30;;
57249;SDS011;43102;52.014;-0.680;2023-05-16T01:03:01;4.40;;;2.30;;
57249;SDS011;43102;52.014;-0.680;2023-05-16T01:04:01;4.40;;;2.30;;
57249;SDS011;43102;52.014;-0.680;2023-05-16T01:05:01;4.40;;;2.30;;
57249;SDS011;43102;52.014;-0.680;2023-05-16T01:06:00;4.40;;;2.30;;
57249;SDS011;43102;52.014;-0.680;2023-05-16T01:07:01;4.40;;;2.30;;
57249;SDS011;43102;52.014;-0.680;2023-05-16T01:08:00;4.40;;;2.30;;
57249;SDS011;43102;52.014;-0.680;2023-05-16T01:09:00;4.40;;;2.30;;
57249;SDS011;43102;52.014;-0.680;2023-05-16T01:10:01;4.40;;;2.30;;
57249;SDS011;43102;52.014;-0.680;2023-05-16T01:11:11;4.40;;;2.30;;
57249;SDS011;43102;52.014;-0.680;2023-05-16T01:12:15;4.40;;;2.30;;
57249;SDS011;43102;52.014;-0.680;2023-05-16T01:13:09;4.40;;;2.30;;
57249;SDS011;43102;52.014;-0.680;2023-05-16T01:16:29;4.40;;;2.30;;
57249;SDS011;43102;52.014;-0.680;2023-05-16T01:17:05;4.40;;;2.30;;
57249;SDS011;43102;52.014;-0.680;2023-05-16T01:18:21;4.40;;;2.30;;
57249;SDS011;43102;52.014;-0.680;2023-05-16T01:20:15;4.40;;;2.30;;
57249;SDS011;43102;52.014;-0.680;2023-05-16T01:21:06;4.40;;;2.30;;
57249;SDS011;43102;52.014;-0.680;2023-05-16T01:22:05;4.40;;;2.30;;
57249;SDS011;43102;52.014;-0.680;2023-05-16T01:24:11;4.40;;;2.30;;
57249;SDS011;43102;52.014;-0.680;2023-05-16T01:25:10;4.40;;;2.30;;
57249;SDS011;43102;52.014;-0.680;2023-05-16T01:26:10;4.40;;;2.30;;
57249;SDS011;43102;52.014;-0.680;2023-05-16T01:27:03;4.40;;;2.30;;
57249;SDS011;43102;52.014;-0.680;2023-05-16T01:28:01;4.40;;;2.30;;
57249;SDS011;43102;52.014;-0.680;2023-05-16T01:29:01;4.40;;;2.30;;
57249;SDS011;43102;52.014;-0.680;2023-05-16T01:30:00;4.40;;;2.30;;
57249;SDS011;43102;52.014;-0.680;2023-05-16T01:31:00;4.40;;;2.30;;
57249;SDS011;43102;52.014;-0.680;2023-05-16T01:32:00;4.50;;;2.40;;
57249;SDS011;43102;52.014;-0.680;2023-05-16T01:33:00;4.50;;;2.40;;
57249;SDS011;43102;52.014;-0.680;2023-05-16T01:34:00;4.50;;;2.40;;
57249;SDS011;43102;52.014;-0.680;2023-05-16T01:35:00;4.50;;;2.40;;
57249;SDS011;43102;52.014;-0.680;2023-05-16T01:36:20;4.50;;;2.40;;
57249;SDS011;43102;52.014;-0.680;2023-05-16T01:37:28;4.50;;;2.40;;
57249;SDS011;43102;52.014;-0.680;2023-05-16T01:38:28;4.50;;;2.40;;
57249;SDS011;43102;52.014;-0.680;2023-05-16T01:39:05;4.50;;;2.40;;
57249;SDS011;43102;52.014;-0.680;2023-05-16T01:40:07;4.50;;;2.40;;
57249;SDS011;43102;52.014;-0.680;2023-05-16T01:41:07;4.50;;;2.40;;
57249;SDS011;43102;52.014;-0.680;2023-05-16T01:42:04;4.50;;;2.40;;
57249;SDS011;43102;52.014;-0.680;2023-05-16T01:43:03;4.50;;;2.40;;
57249;SDS011;43102;52.014;-0.680;2023-05-16T01:44:06;4.50;;;2.40;;
57249;SDS011;43102;52.014;-0.680;2023-05-16T01:45:08;4.50;;;2.40;;
57249;SDS011;43102;52.014;-0.680;2023-05-16T01:46:07;4.50;;;2.40;;
57249;SDS011;43102;52.014;-0.680;2023-05-16T01:47:05;4.50;;;2.40;;
57249;SDS011;43102;52.014;-0.680;2023-05-16T01:48:16;4.50;;;2.40;;
57249;SDS011;43102;52.014;-0.680;2023-05-16T01:50:07;4.50;;;2.40;;
57249;SDS011;43102;52.014;-0.680;2023-05-16T01:51:02;4.50;;;2.40;;
57249;SDS011;43102;52.014;-0.680;2023-05-16T01:52:04;4.50;;;2.40;;
57249;SDS011;43102;52.014;-0.680;2023-05-16T01:53:08;4.50;;;2.40;;
57249;SDS011;43102;52.014;-0.680;2023-05-16T01:54:05;4.50;;;2.40;;
57249;SDS011;43102;52.014;-0.680;2023-05-16T01:55:01;4.50;;;2.40;;
57249;SDS011;43102;52.014;-0.680;2023-05-16T01:56:01;4.50;;;2.40;;
57249;SDS011;43102;52.014;-0.680;2023-05-16T01:57:03;4.50;;;2.40;;
57249;SDS011;43102;52.014;-0.680;2023-05-16T01:58:02;4.50;;;2.40;;
57249;SDS011;43102;52.014;-0.680;2023-05-16T01:59:01;4.50;;;2.40;;
57249;SDS011;43102;52.014;-0.680;2023-05-16T02:00:00;4.50;;;2.40;;
57249;SDS011;43102;52.014;-0.680;2023-05-16T02:01:03;4.50;;;2.40;;
57249;SDS011;43102;52.014;-0.680;2023-05-16T02:02:01;4.40;;;2.20;;
57249;SDS011;43102;52.014;-0.680;2023-05-16T02:03:00;4.40;;;2.20;;
57249;SDS011;43102;52.014;-0.680;2023-05-16T02:04:00;4.40;;;2.20;;
57249;SDS011;43102;52.014;-0.680;2023-05-16T02:05:00;4.40;;;2.20;;
57249;SDS011;43102;52.014;-0.680;2023-05-16T02:06:00;4.40;;;2.20;;
57249;SDS011;43102;52.014;-0.680;2023-05-16T02:07:00;4.40;;;2.20;;
57249;SDS011;43102;52.014;-0.680;2023-05-16T02:08:00;4.40;;;2.20;;
57249;SDS011;43102;52.014;-0.680;2023-05-16T02:09:00;4.40;;;2.20;;
57249;SDS011;43102;52.014;-0.680;2023-05-16T02:10:00;4.40;;;2.20;;
57249;SDS011;43102;52.014;-0.680;2023-05-16T02:11:00;4.40;;;2.20;;
57249;SDS011;43102;52.014;-0.680;2023-05-16T02:12:01;4.40;;;2.20;;
57249;SDS011;43102;52.014;-0.680;2023-05-16T02:13:00;4.40;;;2.20;;
57249;SDS011;43102;52.014;-0.680;2023-05-16T02:14:00;4.40;;;2.20;;
57249;SDS011;43102;52.014;-0.680;2023-05-16T02:15:00;4.40;;;2.20;;
57249;SDS011;43102;52.014;-0.680;2023-05-16T02:16:01;4.40;;;2.20;;
57249;SDS011;43102;52.014;-0.680;2023-05-16T02:17:00;4.40;;;2.20;;
57249;SDS011;43102;52.014;-0.680;2023-05-16T02:18:00;4.40;;;2.20;;
57249;SDS011;43102;52.014;-0.680;2023-05-16T02:19:00;4.40;;;2.20;;
57249;SDS011;43102;52.014;-0.680;2023-05-16T02:20:05;4.40;;;2.20;;
57249;SDS011;43102;52.014;-0.680;2023-05-16T02:21:00;4.40;;;2.20;;
57249;SDS011;43102;52.014;-0.680;2023-05-16T02:22:00;4.40;;;2.20;;
57249;SDS011;43102;52.014;-0.680;2023-05-16T02:23:02;4.40;;;2.20;;
57249;SDS011;43102;52.014;-0.680;2023-05-16T02:24:00;4.40;;;2.20;;
57249;SDS011;43102;52.014;-0.680;2023-05-16T02:25:02;4.40;;;2.20;;
57249;SDS011;43102;52.014;-0.680;2023-05-16T02:26:00;4.40;;;2.20;;
57249;SDS011;43102;52.014;-0.680;2023-05-16T02:27:00;4.40;;;2.20;;
57249;SDS011;43102;52.014;-0.680;2023-05-16T02:28:00;4.40;;;2.20;;
57249;SDS011;43102;52.014;-0.680;2023-05-16T02:29:00;4.40;;;2.20;;
57249;SDS011;43102;52.014;-0.680;2023-05-16T02:30:00;4.40;;;2.20;;
57249;SDS011;43102;52.014;-0.680;2023-05-16T02:31:00;4.40;;;2.20;;
57249;SDS011;43102;52.014;-0.680;2023-05-16T02:32:00;4.40;;;2.40;;
57249;SDS011;43102;52.014;-0.680;2023-05-16T02:33:00;4.40;;;2.40;;
57249;SDS011;43102;52.014;-0.680;2023-05-16T02:34:00;4.40;;;2.40;;
57249;SDS011;43102;52.014;-0.680;2023-05-16T02:35:00;4.40;;;2.40;;
57249;SDS011;43102;52.014;-0.680;2023-05-16T02:36:00;4.40;;;2.40;;
57249;SDS011;43102;52.014;-0.680;2023-05-16T02:37:00;4.40;;;2.40;;
57249;SDS011;43102;52.014;-0.680;2023-05-16T02:38:00;4.40;;;2.40;;
57249;SDS011;43102;52.014;-0.680;2023-05-16T02:39:01;4.40;;;2.40;;
57249;SDS011;43102;52.014;-0.680;2023-05-16T02:40:00;4.40;;;2.40;;
57249;SDS011;43102;52.014;-0.680;2023-05-16T02:41:00;4.40;;;2.40;;
57249;SDS011;43102;52.014;-0.680;2023-05-16T02:42:00;4.40;;;2.40;;
57249;SDS011;43102;52.014;-0.680;2023-05-16T02:43:00;4.40;;;2.40;;
57249;SDS011;43102;52.014;-0.680;2023-05-16T02:44:00;4.40;;;2.40;;
57249;SDS011;43102;52.014;-0.680;2023-05-16T02:45:00;4.40;;;2.40;;
57249;SDS011;43102;52.014;-0.680;2023-05-16T02:46:03;4.40;;;2.40;;
57249;SDS011;43102;52.014;-0.680;2023-05-16T02:47:00;4.40;;;2.40;;
57249;SDS011;43102;52.014;-0.680;2023-05-16T02:48:00;4.40;;;2.40;;
57249;SDS011;43102;52.014;-0.680;2023-05-16T02:49:01;4.40;;;2.40;;
57249;SDS011;43102;52.014;-0.680;2023-05-16T02:50:00;4.40;;;2.40;;
57249;SDS011;43102;52.014;-0.680;2023-05-16T02:51:00;4.40;;;2.40;;
57249;SDS011;43102;52.014;-0.680;2023-05-16T02:52:00;4.40;;;2.40;;
57249;SDS011;43102;52.014;-0.680;2023-05-16T02:53:01;4.40;;;2.40;;
57249;SDS011;43102;52.014;-0.680;2023-05-16T02:54:00;4.40;;;2.40;;
57249;SDS011;43102;52.014;-0.680;2023-05-16T02:55:10;4.40;;;2.40;;
57249;SDS011;43102;52.014;-0.680;2023-05-16T02:56:00;4.40;;;2.40;;
57249;SDS011;43102;52.014;-0.680;2023-05-16T02:57:00;4.40;;;2.40;;
57249;SDS011;43102;52.014;-0.680;2023-05-16T02:58:00;4.40;;;2.40;;
57249;SDS011;43102;52.014;-0.680;2023-05-16T02:59:00;4.40;;;2.40;;
57249;SDS011;43102;52.014;-0.680;2023-05-16T03:00:00;4.40;;;2.40;;
57249;SDS011;43102;52.014;-0.680;2023-05-16T03:01:00;4.40;;;2.40;;
57249;SDS011;43102;52.014;-0.680;2023-05-16T03:02:00;4.30;;;2.70;;
57249;SDS011;43102;52.014;-0.680;2023-05-16T03:03:01;4.30;;;2.70;;
57249;SDS011;43102;52.014;-0.680;2023-05-16T03:04:00;4.30;;;2.70;;
57249;SDS011;43102;52.014;-0.680;2023-05-16T03:05:00;4.30;;;2.70;;
57249;SDS011;43102;52.014;-0.680;2023-05-16T03:06:00;4.30;;;2.70;;
57249;SDS011;43102;52.014;-0.680;2023-05-16T03:07:00;4.30;;;2.70;;
57249;SDS011;43102;52.014;-0.680;2023-05-16T03:08:00;4.30;;;2.70;;
57249;SDS011;43102;52.014;-0.680;2023-05-16T03:09:00;4.30;;;2.70;;
57249;SDS011;43102;52.014;-0.680;2023-05-16T03:10:00;4.30;;;2.70;;
57249;SDS011;43102;52.014;-0.680;2023-05-16T03:11:00;4.30;;;2.70;;
57249;SDS011;43102;52.014;-0.680;2023-05-16T03:12:00;4.30;;;2.70;;
57249;SDS011;43102;52.014;-0.680;2023-05-16T03:13:00;4.30;;;2.70;;
57249;SDS011;43102;52.014;-0.680;2023-05-16T03:14:02;4.30;;;2.70;;
57249;SDS011;43102;52.014;-0.680;2023-05-16T03:15:00;4.30;;;2.70;;
57249;SDS011;43102;52.014;-0.680;2023-05-16T03:16:01;4.30;;;2.70;;
57249;SDS011;43102;52.014;-0.680;2023-05-16T03:17:00;4.30;;;2.70;;
57249;SDS011;43102;52.014;-0.680;2023-05-16T03:18:00;4.30;;;2.70;;
57249;SDS011;43102;52.014;-0.680;2023-05-16T03:19:00;4.30;;;2.70;;
57249;SDS011;43102;52.014;-0.680;2023-05-16T03:20:00;4.30;;;2.70;;
57249;SDS011;43102;52.014;-0.680;2023-05-16T03:21:01;4.30;;;2.70;;
57249;SDS011;43102;52.014;-0.680;2023-05-16T03:22:00;4.30;;;2.70;;
57249;SDS011;43102;52.014;-0.680;2023-05-16T03:23:00;4.30;;;2.70;;
57249;SDS011;43102;52.014;-0.680;2023-05-16T03:24:02;4.30;;;2.70;;
57249;SDS011;43102;52.014;-0.680;2023-05-16T03:25:00;4.30;;;2.70;;
57249;SDS011;43102;52.014;-0.680;2023-05-16T03:26:00;4.30;;;2.70;;
57249;SDS011;43102;52.014;-0.680;2023-05-16T03:27:02;4.30;;;2.70;;
57249;SDS011;43102;52.014;-0.680;2023-05-16T03:28:01;4.30;;;2.70;;
57249;SDS011;43102;52.014;-0.680;2023-05-16T03:29:00;4.30;;;2.70;;
57249;SDS011;43102;52.014;-0.680;2023-05-16T03:30:01;4.30;;;2.70;;
57249;SDS011;43102;52.014;-0.680;2023-05-16T03:31:00;4.30;;;2.70;;
57249;SDS011;43102;52.014;-0.680;2023-05-16T03:32:00;3.60;;;2.00;;
57249;SDS011;43102;52.014;-0.680;2023-05-16T03:33:00;3.60;;;2.00;;
57249;SDS011;43102;52.014;-0.680;2023-05-16T03:34:00;3.60;;;2.00;;
57249;SDS011;43102;52.014;-0.680;2023-05-16T03:35:00;3.60;;;2.00;;
57249;SDS011;43102;52.014;-0.680;2023-05-16T03:36:00;3.60;;;2.00;;
57249;SDS011;43102;52.014;-0.680;2023-05-16T03:37:00;3.60;;;2.00;;
57249;SDS011;43102;52.014;-0.680;2023-05-16T03:38:00;3.60;;;2.00;;
57249;SDS011;43102;52.014;-0.680;2023-05-16T03:39:00;3.60;;;2.00;;
57249;SDS011;43102;52.014;-0.680;2023-05-16T03:40:00;3.60;;;2.00;;
57249;SDS011;43102;52.014;-0.680;2023-05-16T03:41:00;3.60;;;2.00;;
57249;SDS011;43102;52.014;-0.680;2023-05-16T03:42:00;3.60;;;2.00;;
57249;SDS011;43102;52.014;-0.680;2023-05-16T03:43:00;3.60;;;2.00;;
57249;SDS011;43102;52.014;-0.680;2023-05-16T03:44:00;3.60;;;2.00;;
57249;SDS011;43102;52.014;-0.680;2023-05-16T03:45:00;3.60;;;2.00;;
57249;SDS011;43102;52.014;-0.680;2023-05-16T03:46:01;3.60;;;2.00;;
57249;SDS011;43102;52.014;-0.680;2023-05-16T03:47:00;3.60;;;2.00;;
57249;SDS011;43102;52.014;-0.680;2023-05-16T03:48:00;3.60;;;2.00;;
57249;SDS011;43102;52.014;-0.680;2023-05-16T03:49:00;3.60;;;2.00;;
57249;SDS011;43102;52.014;-0.680;2023-05-16T03:50:00;3.60;;;2.00;;
57249;SDS011;43102;52.014;-0.680;2023-05-16T03:51:00;3.60;;;2.00;;
57249;SDS011;43102;52.014;-0.680;2023-05-16T03:52:00;3.60;;;2.00;;
57249;SDS011;43102;52.014;-0.680;2023-05-16T03:53:00;3.60;;;2.00;;
57249;SDS011;43102;52.014;-0.680;2023-05-16T03:54:00;3.60;;;2.00;;
57249;SDS011;43102;52.014;-0.680;2023-05-16T03:55:02;3.60;;;2.00;;
57249;SDS011;43102;52.014;-0.680;2023-05-16T03:56:00;3.60;;;2.00;;
57249;SDS011;43102;52.014;-0.680;2023-05-16T03:57:00;3.60;;;2.00;;
57249;SDS011;43102;52.014;-0.680;2023-05-16T03:58:00;3.60;;;2.00;;
57249;SDS011;43102;52.014;-0.680;2023-05-16T03:59:00;3.60;;;2.00;;
57249;SDS011;43102;52.014;-0.680;2023-05-16T04:00:00;3.60;;;2.00;;
57249;SDS011;43102;52.014;-0.680;2023-05-16T04:01:00;3.60;;;2.00;;
57249;SDS011;43102;52.014;-0.680;2023-05-16T04:02:00;6.30;;;2.40;;
57249;SDS011;43102;52.014;-0.680;2023-05-16T04:03:00;6.30;;;2.40;;
57249;SDS011;43102;52.014;-0.680;2023-05-16T04:04:00;6.30;;;2.40;;
57249;SDS011;43102;52.014;-0.680;2023-05-16T04:05:00;6.30;;;2.40;;
57249;SDS011;43102;52.014;-0.680;2023-05-16T04:06:00;6.30;;;2.40;;
57249;SDS011;43102;52.014;-0.680;2023-05-16T04:07:01;6.30;;;2.40;;
57249;SDS011;43102;52.014;-0.680;2023-05-16T04:08:00;6.30;;;2.40;;
57249;SDS011;43102;52.014;-0.680;2023-05-16T04:09:00;6.30;;;2.40;;
57249;SDS011;43102;52.014;-0.680;2023-05-16T04:10:00;6.30;;;2.40;;
57249;SDS011;43102;52.014;-0.680;2023-05-16T04:11:00;6.30;;;2.40;;
57249;SDS011;43102;52.014;-0.680;2023-05-16T04:12:02;6.30;;;2.40;;
57249;SDS011;43102;52.014;-0.680;2023-05-16T04:13:00;6.30;;;2.40;;
57249;SDS011;43102;52.014;-0.680;2023-05-16T04:14:00;6.30;;;2.40;;
57249;SDS011;43102;52.014;-0.680;2023-05-16T04:15:01;6.30;;;2.40;;
57249;SDS011;43102;52.014;-0.680;2023-05-16T04:16:00;6.30;;;2.40;;
57249;SDS011;43102;52.014;-0.680;2023-05-16T04:17:00;6.30;;;2.40;;
57249;SDS011;43102;52.014;-0.680;2023-05-16T04:18:00;6.30;;;2.40;;
57249;SDS011;43102;52.014;-0.680;2023-05-16T04:19:00;6.30;;;2.40;;
57249;SDS011;43102;52.014;-0.680;2023-05-16T04:20:00;6.30;;;2.40;;
57249;SDS011;43102;52.014;-0.680;2023-05-16T04:21:00;6.30;;;2.40;;
57249;SDS011;43102;52.014;-0.680;2023-05-16T04:22:00;6.30;;;2.40;;
57249;SDS011;43102;52.014;-0.680;2023-05-16T04:23:00;6.30;;;2.40;;
57249;SDS011;43102;52.014;-0.680;2023-05-16T04:24:00;6.30;;;2.40;;
57249;SDS011;43102;52.014;-0.680;2023-05-16T04:25:00;6.30;;;2.40;;
57249;SDS011;43102;52.014;-0.680;2023-05-16T04:26:00;6.30;;;2.40;;
57249;SDS011;43102;52.014;-0.680;2023-05-16T04:27:00;6.30;;;2.40;;
57249;SDS011;43102;52.014;-0.680;2023-05-16T04:28:00;6.30;;;2.40;;
57249;SDS011;43102;52.014;-0.680;2023-05-16T04:29:00;6.30;;;2.40;;
57249;SDS011;43102;52.014;-0.680;2023-05-16T04:30:00;6.30;;;2.40;;
57249;SDS011;43102;52.014;-0.680;2023-05-16T04:31:00;6.30;;;2.40;;
57249;SDS011;43102;52.014;-0.680;2023-05-16T04:32:01;5.00;;;2.30;;
57249;SDS011;43102;52.014;-0.680;2023-05-16T04:33:00;5.00;;;2.30;;
57249;SDS011;43102;52.014;-0.680;2023-05-16T04:34:00;5.00;;;2.30;;
57249;SDS011;43102;52.014;-0.680;2023-05-16T04:35:00;5.00;;;2.30;;
57249;SDS011;43102;52.014;-0.680;2023-05-16T04:36:01;5.00;;;2.30;;
57249;SDS011;43102;52.014;-0.680;2023-05-16T04:37:01;5.00;;;2.30;;
57249;SDS011;43102;52.014;-0.680;2023-05-16T04:38:01;5.00;;;2.30;;
57249;SDS011;43102;52.014;-0.680;2023-05-16T04:39:00;5.00;;;2.30;;
57249;SDS011;43102;52.014;-0.680;2023-05-16T04:40:01;5.00;;;2.30;;
57249;SDS011;43102;52.014;-0.680;2023-05-16T04:41:02;5.00;;;2.30;;
57249;SDS011;43102;52.014;-0.680;2023-05-16T04:42:00;5.00;;;2.30;;
57249;SDS011;43102;52.014;-0.680;2023-05-16T04:43:00;5.00;;;2.30;;
57249;SDS011;43102;52.014;-0.680;2023-05-16T04:44:03;5.00;;;2.30;;
57249;SDS011;43102;52.014;-0.680;2023-05-16T04:45:02;5.00;;;2.30;;
57249;SDS011;43102;52.014;-0.680;2023-05-16T04:46:01;5.00;;;2.30;;
57249;SDS011;43102;52.014;-0.680;2023-05-16T04:47:00;5.00;;;2.30;;
57249;SDS011;43102;52.014;-0.680;2023-05-16T04:48:00;5.00;;;2.30;;
57249;SDS011;43102;52.014;-0.680;2023-05-16T04:49:00;5.00;;;2.30;;
57249;SDS011;43102;52.014;-0.680;2023-05-16T04:50:00;5.00;;;2.30;;
57249;SDS011;43102;52.014;-0.680;2023-05-16T04:51:00;5.00;;;2.30;;
57249;SDS011;43102;52.014;-0.680;2023-05-16T04:52:01;5.00;;;2.30;;
57249;SDS011;43102;52.014;-0.680;2023-05-16T04:53:00;5.00;;;2.30;;
57249;SDS011;43102;52.014;-0.680;2023-05-16T04:54:00;5.00;;;2.30;;
57249;SDS011;43102;52.014;-0.680;2023-05-16T04:55:00;5.00;;;2.30;;
57249;SDS011;43102;52.014;-0.680;2023-05-16T04:56:00;5.00;;;2.30;;
57249;SDS011;43102;52.014;-0.680;2023-05-16T04:57:00;5.00;;;2.30;;
57249;SDS011;43102;52.014;-0.680;2023-05-16T04:58:00;5.00;;;2.30;;
57249;SDS011;43102;52.014;-0.680;2023-05-16T04:59:01;5.00;;;2.30;;
57249;SDS011;43102;52.014;-0.680;2023-05-16T05:00:00;5.00;;;2.30;;
57249;SDS011;43102;52.014;-0.680;2023-05-16T05:01:02;5.00;;;2.30;;
57249;SDS011;43102;52.014;-0.680;2023-05-16T05:02:00;6.10;;;2.90;;
57249;SDS011;43102;52.014;-0.680;2023-05-16T05:03:00;6.10;;;2.90;;
57249;SDS011;43102;52.014;-0.680;2023-05-16T05:04:00;6.10;;;2.90;;
57249;SDS011;43102;52.014;-0.680;2023-05-16T05:05:00;6.10;;;2.90;;
57249;SDS011;43102;52.014;-0.680;2023-05-16T05:06:00;6.10;;;2.90;;
57249;SDS011;43102;52.014;-0.680;2023-05-16T05:07:00;6.10;;;2.90;;
57249;SDS011;43102;52.014;-0.680;2023-05-16T05:08:00;6.10;;;2.90;;
57249;SDS011;43102;52.014;-0.680;2023-05-16T05:09:00;6.10;;;2.90;;
57249;SDS011;43102;52.014;-0.680;2023-05-16T05:10:00;6.10;;;2.90;;
57249;SDS011;43102;52.014;-0.680;2023-05-16T05:11:00;6.10;;;2.90;;
57249;SDS011;43102;52.014;-0.680;2023-05-16T05:12:00;6.10;;;2.90;;
57249;SDS011;43102;52.014;-0.680;2023-05-16T05:13:00;6.10;;;2.90;;
57249;SDS011;43102;52.014;-0.680;2023-05-16T05:14:00;6.10;;;2.90;;
57249;SDS011;43102;52.014;-0.680;2023-05-16T05:15:00;6.10;;;2.90;;
57249;SDS011;43102;52.014;-0.680;2023-05-16T05:16:03;6.10;;;2.90;;
57249;SDS011;43102;52.014;-0.680;2023-05-16T05:17:00;6.10;;;2.90;;
57249;SDS011;43102;52.014;-0.680;2023-05-16T05:18:00;6.10;;;2.90;;
57249;SDS011;43102;52.014;-0.680;2023-05-16T05:19:01;6.10;;;2.90;;
57249;SDS011;43102;52.014;-0.680;2023-05-16T05:20:05;6.10;;;2.90;;
57249;SDS011;43102;52.014;-0.680;2023-05-16T05:21:00;6.10;;;2.90;;
57249;SDS011;43102;52.014;-0.680;2023-05-16T05:22:00;6.10;;;2.90;;
57249;SDS011;43102;52.014;-0.680;2023-05-16T05:23:01;6.10;;;2.90;;
57249;SDS011;43102;52.014;-0.680;2023-05-16T05:24:00;6.10;;;2.90;;
57249;SDS011;43102;52.014;-0.680;2023-05-16T05:25:00;6.10;;;2.90;;
57249;SDS011;43102;52.014;-0.680;2023-05-16T05:26:01;6.10;;;2.90;;
57249;SDS011;43102;52.014;-0.680;2023-05-16T05:27:00;6.10;;;2.90;;
57249;SDS011;43102;52.014;-0.680;2023-05-16T05:28:00;6.10;;;2.90;;
57249;SDS011;43102;52.014;-0.680;2023-05-16T05:29:06;6.10;;;2.90;;
57249;SDS011;43102;52.014;-0.680;2023-05-16T05:30:01;6.10;;;2.90;;
57249;SDS011;43102;52.014;-0.680;2023-05-16T05:31:00;6.10;;;2.90;;
57249;SDS011;43102;52.014;-0.680;2023-05-16T05:32:01;8.00;;;3.20;;
57249;SDS011;43102;52.014;-0.680;2023-05-16T05:33:00;8.00;;;3.20;;
57249;SDS011;43102;52.014;-0.680;2023-05-16T05:34:01;8.00;;;3.20;;
57249;SDS011;43102;52.014;-0.680;2023-05-16T05:35:01;8.00;;;3.20;;
57249;SDS011;43102;52.014;-0.680;2023-05-16T05:36:04;8.00;;;3.20;;
57249;SDS011;43102;52.014;-0.680;2023-05-16T05:37:00;8.00;;;3.20;;
57249;SDS011;43102;52.014;-0.680;2023-05-16T05:38:01;8.00;;;3.20;;
57249;SDS011;43102;52.014;-0.680;2023-05-16T05:39:00;8.00;;;3.20;;
57249;SDS011;43102;52.014;-0.680;2023-05-16T05:40:00;8.00;;;3.20;;
57249;SDS011;43102;52.014;-0.680;2023-05-16T05:41:00;8.00;;;3.20;;
57249;SDS011;43102;52.014;-0.680;2023-05-16T05:42:02;8.00;;;3.20;;
57249;SDS011;43102;52.014;-0.680;2023-05-16T05:43:00;8.00;;;3.20;;
57249;SDS011;43102;52.014;-0.680;2023-05-16T05:44:00;8.00;;;3.20;;
57249;SDS011;43102;52.014;-0.680;2023-05-16T05:45:00;8.00;;;3.20;;
57249;SDS011;43102;52.014;-0.680;2023-05-16T05:46:00;8.00;;;3.20;;
57249;SDS011;43102;52.014;-0.680;2023-05-16T05:47:00;8.00;;;3.20;;
57249;SDS011;43102;52.014;-0.680;2023-05-16T05:48:00;8.00;;;3.20;;
57249;SDS011;43102;52.014;-0.680;2023-05-16T05:49:00;8.00;;;3.20;;
57249;SDS011;43102;52.014;-0.680;2023-05-16T05:50:01;8.00;;;3.20;;
57249;SDS011;43102;52.014;-0.680;2023-05-16T05:51:00;8.00;;;3.20;;
57249;SDS011;43102;52.014;-0.680;2023-05-16T05:52:00;8.00;;;3.20;;
57249;SDS011;43102;52.014;-0.680;2023-05-16T05:53:00;8.00;;;3.20;;
57249;SDS011;43102;52.014;-0.680;2023-05-16T05:54:01;8.00;;;3.20;;
57249;SDS011;43102;52.014;-0.680;2023-05-16T05:55:00;8.00;;;3.20;;
57249;SDS011;43102;52.014;-0.680;2023-05-16T05:56:00;8.00;;;3.20;;
57249;SDS011;43102;52.014;-0.680;2023-05-16T05:57:00;8.00;;;3.20;;
57249;SDS011;43102;52.014;-0.680;2023-05-16T05:58:00;8.00;;;3.20;;
57249;SDS011;43102;52.014;-0.680;2023-05-16T05:59:01;8.00;;;3.20;;
57249;SDS011;43102;52.014;-0.680;2023-05-16T06:00:00;8.00;;;3.20;;